This is the latest recevied weather packets stored in our database for station/object YD2CLX-11. If no packets are shown the sender has not sent any weather packets the latest 10 day(s).
| Time | Temp. | Humidity | Pressure | Rain* | Wind** | Luminosity | Snow |
|---|---|---|---|---|---|---|---|
| 1778321982 | 23.33° C | 85% | 889.4 hPa | - | - | - | - |
| 1778321382 | 22.78° C | 85% | 889.3 hPa | - | - | - | - |
| 1778320782 | 23.33° C | 82% | 889.1 hPa | - | - | - | - |
| 1778320182 | 23.33° C | 83% | 889 hPa | - | - | - | - |
| 1778319582 | 23.89° C | 81% | 889.1 hPa | - | - | - | - |
| 1778318982 | 24.44° C | 78% | 888.8 hPa | - | - | - | - |
| 1778318382 | 24.44° C | 78% | 888.8 hPa | - | - | - | - |
| 1778317782 | 24.44° C | 77% | 888.6 hPa | - | - | - | - |
| 1778317181 | 24.44° C | 77% | 888.7 hPa | - | - | - | - |
| 1778316580 | 24.44° C | 77% | 888.7 hPa | - | - | - | - |
| 1778315980 | 24.44° C | 77% | 888.7 hPa | - | - | - | - |
| 1778315380 | 24.44° C | 78% | 888.7 hPa | - | - | - | - |
| 1778314780 | 25° C | 76% | 888.6 hPa | - | - | - | - |
| 1778314180 | 25° C | 75% | 888.6 hPa | - | - | - | - |
| 1778313580 | 25° C | 75% | 888.6 hPa | - | - | - | - |
| 1778312980 | 25° C | 75% | 888.5 hPa | - | - | - | - |
| 1778312380 | 25° C | 75% | 888.6 hPa | - | - | - | - |
| 1778311780 | 25° C | 75% | 888.6 hPa | - | - | - | - |
| 1778311180 | 25° C | 75% | 888.6 hPa | - | - | - | - |
| 1778310580 | 25° C | 75% | 888.7 hPa | - | - | - | - |
| 1778309980 | 25.56° C | 74% | 888.7 hPa | - | - | - | - |
| 1778309379 | 25.56° C | 73% | 888.8 hPa | - | - | - | - |
| 1778308779 | 25° C | 74% | 888.9 hPa | - | - | - | - |
| 1778308179 | 24.44° C | 76% | 888.9 hPa | - | - | - | - |
| 1778307579 | 24.44° C | 75% | 889 hPa | - | - | - | - |
* Rain since midnight (hover to see other rain measurements)
** Current wind speed in m/s (hover to see current wind gust speed)